Skagerak — SGCD — position and weather

sailwx.info

Track history (hours):
 
Tides and Currents Weather Stations Pressure Air Temp Water Temp Dewpoint Dewpoint Depression Visibility Wind Speed Wind Dir Waves Ship Positions

Oceanographic research ship Skagerak (Sweden)

Detailed information on ship capabilities available from University of Delaware's Ocean Information Center.

Last reported at 2017-Nov-15 11:03 UTC. Time now 2017-Nov-18 09:52 UTC.
Position N 58°15' E 011°27'.

Length 38 m; draft 3.8 m.

Type: Dredging. MMSI: 265280000.

Date/timePositionNaut miles runAvg speedWind from/ knotsBaromVisibWave heightAir tempDewpointWater temp
2017-Nov-15 11:03N 58°15' E 011°27'2 8.3
2017-Nov-15 10:47N 58°17' E 011°31'3 0.1
2017-Nov-14 15:58N 58°15' E 011°27'3 5.5
2017-Nov-14 15:28N 58°17' E 011°31'0 0.0
2017-Nov-14 14:55N 58°17' E 011°31'0 0.1
2017-Nov-14 14:19N 58°17' E 011°31'1 1.0
2017-Nov-14 12:55N 58°18' E 011°31'41 1.2
2017-Nov-13 02:00N 57°39' E 011°51'0 0.0
2017-Nov-13 01:30N 57°39' E 011°51'0 0.0
2017-Nov-13 01:00N 57°39' E 011°51'0 0.0
2017-Nov-13 00:27N 57°39' E 011°51'0 0.0
2017-Nov-13 00:00N 57°39' E 011°51'0 0.0
2017-Nov-12 23:30N 57°39' E 011°51'0 0.0
2017-Nov-12 23:00N 57°39' E 011°51'0 0.0
2017-Nov-12 22:30N 57°39' E 011°51'0 0.0
2017-Nov-12 22:00N 57°39' E 011°51'0 0.3
2017-Nov-12 21:31N 57°39' E 011°52'0 0.3
2017-Nov-12 21:00N 57°39' E 011°51'0 0.0
2017-Nov-12 20:30N 57°39' E 011°51'0 0.0
2017-Nov-12 20:00N 57°39' E 011°51'0 0.0
2017-Nov-12 19:30N 57°39' E 011°51'0 0.0
2017-Nov-12 19:01N 57°39' E 011°51'0 0.0
2017-Nov-12 18:31N 57°39' E 011°51'0 0.0
2017-Nov-12 18:00N 57°39' E 011°51'0 0.0
2017-Nov-12 17:30N 57°39' E 011°51'0 0.0
2017-Nov-12 17:00N 57°39' E 011°51'0 0.0
2017-Nov-12 16:30N 57°39' E 011°51'0 0.0
2017-Nov-12 16:00N 57°39' E 011°51'0 0.0
2017-Nov-12 15:30N 57°39' E 011°51'0 0.0
2017-Nov-12 15:00N 57°39' E 011°51'0 0.0
2017-Nov-12 14:30N 57°39' E 011°51'0 0.0
2017-Nov-12 14:00N 57°39' E 011°51'0 0.0
2017-Nov-12 13:31N 57°39' E 011°51'0 0.0
2017-Nov-12 13:01N 57°39' E 011°51'0 0.0
2017-Nov-12 12:30N 57°39' E 011°51'0 0.0
2017-Nov-12 12:00N 57°39' E 011°51'0 0.1
2017-Nov-12 11:30N 57°39' E 011°51'0 0.1
2017-Nov-12 11:00N 57°39' E 011°51'0 0.0
2017-Nov-12 10:30N 57°39' E 011°51'0 0.0
2017-Nov-12 10:00N 57°39' E 011°51'0 0.0
2017-Nov-12 09:31N 57°39' E 011°51'0 0.0
2017-Nov-12 09:00N 57°39' E 011°51'0 0.0
2017-Nov-12 08:30N 57°39' E 011°51'0 0.0
2017-Nov-12 08:00N 57°39' E 011°51'0 0.0
2017-Nov-12 07:30N 57°39' E 011°52'0 0.0
2017-Nov-12 07:01N 57°39' E 011°51'0 0.0
2017-Nov-12 06:30N 57°39' E 011°51'0 0.0
2017-Nov-12 06:01N 57°39' E 011°51'0 0.0
2017-Nov-12 05:31N 57°39' E 011°51'0 0.0
2017-Nov-12 05:01N 57°39' E 011°51'0 0.0
2017-Nov-12 04:30N 57°39' E 011°51'0 0.0
2017-Nov-12 04:01N 57°39' E 011°51'0 0.0
2017-Nov-12 03:31N 57°39' E 011°51'0 0.0
2017-Nov-12 03:01N 57°39' E 011°51'0 0.0
2017-Nov-12 02:30N 57°39' E 011°51'0 0.0
2017-Nov-12 02:00N 57°39' E 011°51'0 0.0
2017-Nov-12 01:30N 57°39' E 011°51'0 0.0
2017-Nov-12 01:01N 57°39' E 011°51'0 0.0
2017-Nov-12 00:31N 57°39' E 011°51'0 0.0
2017-Nov-12 00:00N 57°39' E 011°51'0 0.0
2017-Nov-11 23:31N 57°39' E 011°51'0 0.0
2017-Nov-11 23:01N 57°39' E 011°51'0 0.0
2017-Nov-11 22:30N 57°39' E 011°51'0 0.0
2017-Nov-11 22:01N 57°39' E 011°51'0 0.3
2017-Nov-11 21:30N 57°39' E 011°51'0 0.3
2017-Nov-11 21:01N 57°39' E 011°51'0 0.0
2017-Nov-11 20:30N 57°39' E 011°51'0 0.0
2017-Nov-11 20:01N 57°39' E 011°51'0 0.0
2017-Nov-11 19:30N 57°39' E 011°51'0 0.0
2017-Nov-11 19:00N 57°39' E 011°51'0 0.0
2017-Nov-11 18:30N 57°39' E 011°51'0 0.0
2017-Nov-11 18:01N 57°39' E 011°51'0 0.0
2017-Nov-11 17:31N 57°39' E 011°51'0 0.0
2017-Nov-11 17:00N 57°39' E 011°51'0 0.0
2017-Nov-11 16:31N 57°39' E 011°51'0 0.0
2017-Nov-11 16:00N 57°39' E 011°51'0 0.0
2017-Nov-11 15:31N 57°39' E 011°51'0 0.0
2017-Nov-11 15:00N 57°39' E 011°51'0 0.0
2017-Nov-11 14:30N 57°39' E 011°51'0 0.1
2017-Nov-11 14:00N 57°39' E 011°51'0 0.1
2017-Nov-11 13:30N 57°39' E 011°51'0 0.0
2017-Nov-11 13:00N 57°39' E 011°51'0 0.0
2017-Nov-11 12:31N 57°39' E 011°51'0 0.0
2017-Nov-11 12:01N 57°39' E 011°51'0 0.1
2017-Nov-11 11:30N 57°39' E 011°52'0 0.1
2017-Nov-11 11:01N 57°39' E 011°52'0 0.1
2017-Nov-11 10:30N 57°39' E 011°51'0 0.0
2017-Nov-11 10:00N 57°39' E 011°51'0 0.0
2017-Nov-11 09:30N 57°39' E 011°51'0 0.0
2017-Nov-11 09:00N 57°39' E 011°51'0 0.0
2017-Nov-11 08:31N 57°39' E 011°51'0 0.0
2017-Nov-11 08:01N 57°39' E 011°51'0 0.0
2017-Nov-11 07:30N 57°39' E 011°51'0 0.0
2017-Nov-11 07:00N 57°39' E 011°51'0 0.0
2017-Nov-11 06:30N 57°39' E 011°51'0 0.0
2017-Nov-11 06:01N 57°39' E 011°51'0 0.0
2017-Nov-11 05:30N 57°39' E 011°51'0 0.0
2017-Nov-11 05:00N 57°39' E 011°51'0 0.0
2017-Nov-11 04:30N 57°39' E 011°51'0 0.0
2017-Nov-11 04:00N 57°39' E 011°51'0 0.0
2017-Nov-11 03:30N 57°39' E 011°51'0 0.0
2017-Nov-11 03:00N 57°39' E 011°51'0 0.0
2017-Nov-11 02:30N 57°39' E 011°51'0 0.0
2017-Nov-11 02:00N 57°39' E 011°51'0 0.0
2017-Nov-11 01:30N 57°39' E 011°51'0 0.0
2017-Nov-11 01:00N 57°39' E 011°51'0 0.0
2017-Nov-11 00:30N 57°39' E 011°51'0 0.0
2017-Nov-11 00:00N 57°39' E 011°51'0 0.0
2017-Nov-10 23:30N 57°39' E 011°51'0 0.0
2017-Nov-10 23:00N 57°39' E 011°51'0 0.0
2017-Nov-10 22:30N 57°39' E 011°51'0 0.0
2017-Nov-10 21:36N 57°39' E 011°51'0 0.1
2017-Nov-10 21:31N 57°39' E 011°51'0 0.0
2017-Nov-10 21:01N 57°39' E 011°51'0 0.0
2017-Nov-10 20:31N 57°39' E 011°51'0 0.0
2017-Nov-10 20:00N 57°39' E 011°51'0 0.0
2017-Nov-10 19:31N 57°39' E 011°51'0 0.0
2017-Nov-10 19:01N 57°39' E 011°51'0 0.0
2017-Nov-10 18:30N 57°39' E 011°51'0 0.0
2017-Nov-10 18:01N 57°39' E 011°51'0 0.0
2017-Nov-10 17:31N 57°39' E 011°51'0 0.0
2017-Nov-10 17:00N 57°39' E 011°51'0 0.0
2017-Nov-10 16:30N 57°39' E 011°51'0 0.0
2017-Nov-10 16:01N 57°39' E 011°51'0 0.0
2017-Nov-10 15:31N 57°39' E 011°51'0 0.0
2017-Nov-10 15:01N 57°39' E 011°51'0 0.0
2017-Nov-10 14:30N 57°39' E 011°51'0 0.0
2017-Nov-10 14:01N 57°39' E 011°51'0 0.0
2017-Nov-10 13:31N 57°39' E 011°51'0 0.0
2017-Nov-10 13:01N 57°39' E 011°51'0 0.0
2017-Nov-10 12:30N 57°39' E 011°51'0 0.0
2017-Nov-10 12:00N 57°39' E 011°51'0 0.0
2017-Nov-10 11:26N 57°39' E 011°51'0 0.0
2017-Nov-10 11:00N 57°39' E 011°51'0 0.0
2017-Nov-10 10:30N 57°39' E 011°51'0 0.0
2017-Nov-10 09:54N 57°39' E 011°51'0 0.0
2017-Nov-10 09:30N 57°39' E 011°51'0 0.0
2017-Nov-10 09:00N 57°39' E 011°51'0 0.0
2017-Nov-10 08:30N 57°39' E 011°51'0 0.0
2017-Nov-10 07:57N 57°39' E 011°51'0 0.0
2017-Nov-10 07:30N 57°39' E 011°51'0 0.0
2017-Nov-10 07:00N 57°39' E 011°51'0 0.0
2017-Nov-10 06:30N 57°39' E 011°51'0 0.0
2017-Nov-10 06:00N 57°39' E 011°51'0 0.0
2017-Nov-10 05:30N 57°39' E 011°51'0 0.0
2017-Nov-10 05:00N 57°39' E 011°51'0 0.0
2017-Nov-10 04:30N 57°39' E 011°51'0 0.0
2017-Nov-10 04:00N 57°39' E 011°51'0 0.0
2017-Nov-10 03:30N 57°39' E 011°51'0 0.0
2017-Nov-10 03:00N 57°39' E 011°51'0 0.0
2017-Nov-10 02:30N 57°39' E 011°51'0 0.0
2017-Nov-10 02:00N 57°39' E 011°51'0 0.0
2017-Nov-10 01:30N 57°39' E 011°51'0 0.0
2017-Nov-10 01:00N 57°39' E 011°51'0 0.1
2017-Nov-10 00:31N 57°39' E 011°52'0 0.1
2017-Nov-10 00:01N 57°39' E 011°51'0 0.0
2017-Nov-09 23:31N 57°39' E 011°51'0 0.0
2017-Nov-09 23:00N 57°39' E 011°51'0 0.0
2017-Nov-09 22:31N 57°39' E 011°51'0 0.2
2017-Nov-09 22:00N 57°39' E 011°52'0 0.3
2017-Nov-09 21:30N 57°39' E 011°52'0 0.3
2017-Nov-09 21:01N 57°39' E 011°51'0 0.0
2017-Nov-09 20:30N 57°39' E 011°51'0 0.0
2017-Nov-09 20:00N 57°39' E 011°51'0 0.0
2017-Nov-09 19:30N 57°39' E 011°51'0 0.0
2017-Nov-09 19:00N 57°39' E 011°51'0 0.0
2017-Nov-09 18:30N 57°39' E 011°51'0 0.0
2017-Nov-09 18:00N 57°39' E 011°51'0 0.0
2017-Nov-09 17:31N 57°39' E 011°51'0 0.0
2017-Nov-09 17:00N 57°39' E 011°51'0 0.0
2017-Nov-09 16:31N 57°39' E 011°51'0 0.0
2017-Nov-09 16:00N 57°39' E 011°51'0 0.0
2017-Nov-09 15:30N 57°39' E 011°51'0 0.0
2017-Nov-09 15:00N 57°39' E 011°51'0 0.0
2017-Nov-09 14:30N 57°39' E 011°51'0 0.0
2017-Nov-09 14:01N 57°39' E 011°51'0 0.0
2017-Nov-09 13:30N 57°39' E 011°51'0 0.0
2017-Nov-09 13:01N 57°39' E 011°51'0 0.0
2017-Nov-09 12:31N 57°39' E 011°51'0 0.0
2017-Nov-09 12:00N 57°39' E 011°51'0 0.1
2017-Nov-09 11:30N 57°39' E 011°51'0 0.0
2017-Nov-09 11:00N 57°39' E 011°51'0 0.0
2017-Nov-09 10:31N 57°39' E 011°51'0 0.0
2017-Nov-09 10:00N 57°39' E 011°51'0 0.0
2017-Nov-09 09:31N 57°39' E 011°51'0 0.0
2017-Nov-09 09:00N 57°39' E 011°51'0 0.0
2017-Nov-09 08:30N 57°39' E 011°51'0 0.0
2017-Nov-09 08:00N 57°39' E 011°51'0 0.0
2017-Nov-09 07:30N 57°39' E 011°51'0 0.0
2017-Nov-09 07:00N 57°39' E 011°51'0 0.0
2017-Nov-09 06:30N 57°39' E 011°51'0 0.0
2017-Nov-09 06:01N 57°39' E 011°51'0 0.0
2017-Nov-09 05:31N 57°39' E 011°51'0 0.0
2017-Nov-09 05:00N 57°39' E 011°51'0 0.0
2017-Nov-09 04:21N 57°39' E 011°51'0 0.0
2017-Nov-09 04:00N 57°39' E 011°51'0 0.0
2017-Nov-09 03:31N 57°39' E 011°51'0 0.0
2017-Nov-09 03:00N 57°39' E 011°51'0 0.0
2017-Nov-09 02:31N 57°39' E 011°51'0 0.0
2017-Nov-09 02:01N 57°39' E 011°51'0 0.0
2017-Nov-09 01:31N 57°39' E 011°51'0 0.0
2017-Nov-09 01:01N 57°39' E 011°51'0 0.1
2017-Nov-09 00:31N 57°39' E 011°51'0 0.1
2017-Nov-09 00:01N 57°39' E 011°51'0 0.0
2017-Nov-08 23:30N 57°39' E 011°51'0 0.0
2017-Nov-08 23:01N 57°39' E 011°51'0 0.0
2017-Nov-08 22:31N 57°39' E 011°51'0 0.1
2017-Nov-08 22:01N 57°39' E 011°51'0 0.1
2017-Nov-08 21:30N 57°39' E 011°51'0 0.0
2017-Nov-08 21:00N 57°39' E 011°51'0 0.0
2017-Nov-08 20:31N 57°39' E 011°51'0 0.0
2017-Nov-08 20:01N 57°39' E 011°51'0 0.0
2017-Nov-08 19:30N 57°39' E 011°51'0 0.0
2017-Nov-08 19:01N 57°39' E 011°51'0 0.0
2017-Nov-08 18:30N 57°39' E 011°51'0 0.0
2017-Nov-08 18:01N 57°39' E 011°51'0 0.0
2017-Nov-08 17:31N 57°39' E 011°51'0 0.0
2017-Nov-08 17:01N 57°39' E 011°51'0 0.0
2017-Nov-08 16:31N 57°39' E 011°51'0 0.0
2017-Nov-08 16:00N 57°39' E 011°51'0 0.0
2017-Nov-08 15:31N 57°39' E 011°51'0 0.0
2017-Nov-08 15:00N 57°39' E 011°51'0 0.0
2017-Nov-08 14:30N 57°39' E 011°51'0 0.0
2017-Nov-08 14:00N 57°39' E 011°51'0 0.0
2017-Nov-08 13:31N 57°39' E 011°51'0 0.0
2017-Nov-08 13:00N 57°39' E 011°51'0 0.0
2017-Nov-08 12:31N 57°39' E 011°51'0 0.0
2017-Nov-08 12:00N 57°39' E 011°51'0 0.1
2017-Nov-08 11:23N 57°39' E 011°51'0 0.1
2017-Nov-08 11:00N 57°39' E 011°51'0 0.0
2017-Nov-08 10:30N 57°39' E 011°51'0 0.0
2017-Nov-08 10:00N 57°39' E 011°51'0 0.0
2017-Nov-08 09:30N 57°39' E 011°51'0 0.0
2017-Nov-08 09:01N 57°39' E 011°51'0 0.0
2017-Nov-08 08:30N 57°39' E 011°51'0 0.0
2017-Nov-08 08:00N 57°39' E 011°51'0 0.0
2017-Nov-08 07:30N 57°39' E 011°51'0 0.0
2017-Nov-08 07:00N 57°39' E 011°51'0 0.0
2017-Nov-08 06:24N 57°39' E 011°51'0 0.0
2017-Nov-08 06:00N 57°39' E 011°51'0 0.0
2017-Nov-08 05:31N 57°39' E 011°51'0 0.0
2017-Nov-08 05:00N 57°39' E 011°51'0 0.0
2017-Nov-08 04:29N 57°39' E 011°51'0 0.0
2017-Nov-08 04:00N 57°39' E 011°51'0 0.0
2017-Nov-08 03:30N 57°39' E 011°51'0 0.0
2017-Nov-08 03:00N 57°39' E 011°51'0 0.0
2017-Nov-08 02:31N 57°39' E 011°51'0 0.0
2017-Nov-08 02:01N 57°39' E 011°51'0 0.0
2017-Nov-08 01:30N 57°39' E 011°51'0 0.0
2017-Nov-08 00:48N 57°39' E 011°51'0 0.0
2017-Nov-08 00:30N 57°39' E 011°51'0 0.0
2017-Nov-08 00:00N 57°39' E 011°51'0 0.0
2017-Nov-07 23:30N 57°39' E 011°51'0 0.0
2017-Nov-07 23:00N 57°39' E 011°51'0 0.0
2017-Nov-07 22:30N 57°39' E 011°51'0 0.1
2017-Nov-07 22:00N 57°39' E 011°52'0 0.1
2017-Nov-07 21:30N 57°39' E 011°51'0 0.0
2017-Nov-07 21:01N 57°39' E 011°51'0 0.0
2017-Nov-07 20:30N 57°39' E 011°51'0 0.0
2017-Nov-07 20:01N 57°39' E 011°51'0 0.0
2017-Nov-07 19:30N 57°39' E 011°51'0 0.0
2017-Nov-07 19:00N 57°39' E 011°51'0 0.0
2017-Nov-07 18:30N 57°39' E 011°51'0 0.0
2017-Nov-07 18:00N 57°39' E 011°51'0 0.0
2017-Nov-07 17:30N 57°39' E 011°51'0 0.0
2017-Nov-07 17:01N 57°39' E 011°51'0 0.0
2017-Nov-07 16:30N 57°39' E 011°51'0 0.0
2017-Nov-07 16:00N 57°39' E 011°51'0 0.0
2017-Nov-07 15:30N 57°39' E 011°51'0 0.0
2017-Nov-07 15:01N 57°39' E 011°51'0 0.0
2017-Nov-07 14:30N 57°39' E 011°51'0 0.0
2017-Nov-07 14:00N 57°39' E 011°51'0 0.0
2017-Nov-07 13:30N 57°39' E 011°51'0 0.0
2017-Nov-07 13:00N 57°39' E 011°51'0 0.0
2017-Nov-07 12:30N 57°39' E 011°51'0 0.0
2017-Nov-07 11:38N 57°39' E 011°51'0 0.2
2017-Nov-07 11:30N 57°39' E 011°51'0 0.1
2017-Nov-07 11:00N 57°39' E 011°51'0 0.0
2017-Nov-07 10:30N 57°39' E 011°51'0 0.0
2017-Nov-07 10:00N 57°39' E 011°51'0 0.0
2017-Nov-07 09:30N 57°39' E 011°51'0 0.0
2017-Nov-07 09:00N 57°39' E 011°51'0 0.0
2017-Nov-07 08:30N 57°39' E 011°51'0 0.0
2017-Nov-07 08:00N 57°39' E 011°51'0 0.0
2017-Nov-07 07:30N 57°39' E 011°51'0 0.0
2017-Nov-07 07:00N 57°39' E 011°51'0 0.1
2017-Nov-07 06:29N 57°39' E 011°52'0 0.2
2017-Nov-07 06:00N 57°39' E 011°51'0 0.0
2017-Nov-07 05:30N 57°39' E 011°51'0 0.0
2017-Nov-07 05:00N 57°39' E 011°51'0 0.0
2017-Nov-07 04:31N 57°39' E 011°51'0 0.0
2017-Nov-07 04:01N 57°39' E 011°51'0 0.0
2017-Nov-07 03:30N 57°39' E 011°51'0 0.0
2017-Nov-07 03:00N 57°39' E 011°51'0 0.0
2017-Nov-07 02:30N 57°39' E 011°51'0 0.0
2017-Nov-07 02:00N 57°39' E 011°51'0 0.0
2017-Nov-07 01:30N 57°39' E 011°51'0 0.2
2017-Nov-07 01:00N 57°39' E 011°51'0 0.3
2017-Nov-07 00:31N 57°39' E 011°52'0 0.1
2017-Nov-07 00:01N 57°39' E 011°51'0 0.0
2017-Nov-06 23:30N 57°39' E 011°51'0 0.0
2017-Nov-06 23:01N 57°39' E 011°51'0 0.0
2017-Nov-06 22:30N 57°39' E 011°51'0 0.0
2017-Nov-06 21:49N 57°39' E 011°51'0 0.0
2017-Nov-06 21:31N 57°39' E 011°51'0 0.0
2017-Nov-06 21:00N 57°39' E 011°51'0 0.0
2017-Nov-06 20:30N 57°39' E 011°51'0 0.0
2017-Nov-06 02:30N 57°39' E 011°51'0 0.0
2017-Nov-06 02:01N 57°39' E 011°51'0 0.0
2017-Nov-06 01:31N 57°39' E 011°51'0 0.0
2017-Nov-06 00:55N 57°39' E 011°51'0 0.0
2017-Nov-06 00:30N 57°39' E 011°51'0 0.0
2017-Nov-06 00:00N 57°39' E 011°51'0 0.0
2017-Nov-05 23:30N 57°39' E 011°51'0 0.0
2017-Nov-05 23:00N 57°39' E 011°51'0 0.0
2017-Nov-05 22:30N 57°39' E 011°51'0 0.3
2017-Nov-05 22:00N 57°39' E 011°51'0 0.3
2017-Nov-05 21:30N 57°39' E 011°51'0 0.0
2017-Nov-05 21:00N 57°39' E 011°51'0 0.0
2017-Nov-05 20:30N 57°39' E 011°51'0 0.0
2017-Nov-05 20:00N 57°39' E 011°51'0 0.0
2017-Nov-05 19:30N 57°39' E 011°51'0 0.0
2017-Nov-05 19:00N 57°39' E 011°51'0 0.0
2017-Nov-05 18:30N 57°39' E 011°51'0 0.0
2017-Nov-05 18:00N 57°39' E 011°51'0 0.0
2017-Nov-05 17:30N 57°39' E 011°51'0 0.0
2017-Nov-05 17:00N 57°39' E 011°51'0 0.0
2017-Nov-05 16:30N 57°39' E 011°51'0 0.0
2017-Nov-05 16:00N 57°39' E 011°51'0 0.0
2017-Nov-05 15:30N 57°39' E 011°51'0 0.0
2017-Nov-05 15:00N 57°39' E 011°51'0 0.0
2017-Nov-05 14:30N 57°39' E 011°51'0 0.0
2017-Nov-05 14:00N 57°39' E 011°51'0 0.0
2017-Nov-05 13:30N 57°39' E 011°51'0 0.0
2017-Nov-05 13:00N 57°39' E 011°51'0 0.0
2017-Nov-05 12:30N 57°39' E 011°51'0 0.1
2017-Nov-05 12:00N 57°39' E 011°51'0 0.1
2017-Nov-05 11:30N 57°39' E 011°51'  
Track history (hours):
 
Tides and Currents Weather Stations Pressure Air Temp Water Temp Dewpoint Dewpoint Depression Visibility Wind Speed Wind Dir Waves Ship Positions

Oceanographic research ship Skagerak (Sweden)

Detailed information on ship capabilities available from University of Delaware's Ocean Information Center.

Last reported at 2017-Nov-15 11:03 UTC. Time now 2017-Nov-18 09:52 UTC.
Position N 58°15' E 011°27'.

Length 38 m; draft 3.8 m.

Type: Dredging. MMSI: 265280000.

Date/timePositionNaut miles runAvg speedWind from/ knotsBaromVisibWave heightAir tempDewpointWater temp
2017-Nov-15 11:03N 58°15' E 011°27'2 8.3
2017-Nov-15 10:47N 58°17' E 011°31'3 0.1
2017-Nov-14 15:58N 58°15' E 011°27'3 5.5
2017-Nov-14 15:28N 58°17' E 011°31'0 0.0
2017-Nov-14 14:55N 58°17' E 011°31'0 0.1
2017-Nov-14 14:19N 58°17' E 011°31'1 1.0
2017-Nov-14 12:55N 58°18' E 011°31'41 1.2
2017-Nov-13 02:00N 57°39' E 011°51'0 0.0
2017-Nov-13 01:30N 57°39' E 011°51'0 0.0
2017-Nov-13 01:00N 57°39' E 011°51'0 0.0
2017-Nov-13 00:27N 57°39' E 011°51'0 0.0
2017-Nov-13 00:00N 57°39' E 011°51'0 0.0
2017-Nov-12 23:30N 57°39' E 011°51'0 0.0
2017-Nov-12 23:00N 57°39' E 011°51'0 0.0
2017-Nov-12 22:30N 57°39' E 011°51'0 0.0
2017-Nov-12 22:00N 57°39' E 011°51'0 0.3
2017-Nov-12 21:31N 57°39' E 011°52'0 0.3
2017-Nov-12 21:00N 57°39' E 011°51'0 0.0
2017-Nov-12 20:30N 57°39' E 011°51'0 0.0
2017-Nov-12 20:00N 57°39' E 011°51'0 0.0
2017-Nov-12 19:30N 57°39' E 011°51'0 0.0
2017-Nov-12 19:01N 57°39' E 011°51'0 0.0
2017-Nov-12 18:31N 57°39' E 011°51'0 0.0
2017-Nov-12 18:00N 57°39' E 011°51'0 0.0
2017-Nov-12 17:30N 57°39' E 011°51'0 0.0
2017-Nov-12 17:00N 57°39' E 011°51'0 0.0
2017-Nov-12 16:30N 57°39' E 011°51'0 0.0
2017-Nov-12 16:00N 57°39' E 011°51'0 0.0
2017-Nov-12 15:30N 57°39' E 011°51'0 0.0
2017-Nov-12 15:00N 57°39' E 011°51'0 0.0
2017-Nov-12 14:30N 57°39' E 011°51'0 0.0
2017-Nov-12 14:00N 57°39' E 011°51'0 0.0
2017-Nov-12 13:31N 57°39' E 011°51'0 0.0
2017-Nov-12 13:01N 57°39' E 011°51'0 0.0
2017-Nov-12 12:30N 57°39' E 011°51'0 0.0
2017-Nov-12 12:00N 57°39' E 011°51'0 0.1
2017-Nov-12 11:30N 57°39' E 011°51'0 0.1
2017-Nov-12 11:00N 57°39' E 011°51'0 0.0
2017-Nov-12 10:30N 57°39' E 011°51'0 0.0
2017-Nov-12 10:00N 57°39' E 011°51'0 0.0
2017-Nov-12 09:31N 57°39' E 011°51'0 0.0
2017-Nov-12 09:00N 57°39' E 011°51'0 0.0
2017-Nov-12 08:30N 57°39' E 011°51'0 0.0
2017-Nov-12 08:00N 57°39' E 011°51'0 0.0
2017-Nov-12 07:30N 57°39' E 011°52'0 0.0
2017-Nov-12 07:01N 57°39' E 011°51'0 0.0
2017-Nov-12 06:30N 57°39' E 011°51'0 0.0
2017-Nov-12 06:01N 57°39' E 011°51'0 0.0
2017-Nov-12 05:31N 57°39' E 011°51'0 0.0
2017-Nov-12 05:01N 57°39' E 011°51'0 0.0
2017-Nov-12 04:30N 57°39' E 011°51'0 0.0
2017-Nov-12 04:01N 57°39' E 011°51'0 0.0
2017-Nov-12 03:31N 57°39' E 011°51'0 0.0
2017-Nov-12 03:01N 57°39' E 011°51'0 0.0
2017-Nov-12 02:30N 57°39' E 011°51'0 0.0
2017-Nov-12 02:00N 57°39' E 011°51'0 0.0
2017-Nov-12 01:30N 57°39' E 011°51'0 0.0
2017-Nov-12 01:01N 57°39' E 011°51'0 0.0
2017-Nov-12 00:31N 57°39' E 011°51'0 0.0
2017-Nov-12 00:00N 57°39' E 011°51'0 0.0
2017-Nov-11 23:31N 57°39' E 011°51'0 0.0
2017-Nov-11 23:01N 57°39' E 011°51'0 0.0
2017-Nov-11 22:30N 57°39' E 011°51'0 0.0
2017-Nov-11 22:01N 57°39' E 011°51'0 0.3
2017-Nov-11 21:30N 57°39' E 011°51'0 0.3
2017-Nov-11 21:01N 57°39' E 011°51'0 0.0
2017-Nov-11 20:30N 57°39' E 011°51'0 0.0
2017-Nov-11 20:01N 57°39' E 011°51'0 0.0
2017-Nov-11 19:30N 57°39' E 011°51'0 0.0
2017-Nov-11 19:00N 57°39' E 011°51'0 0.0
2017-Nov-11 18:30N 57°39' E 011°51'0 0.0
2017-Nov-11 18:01N 57°39' E 011°51'0 0.0
2017-Nov-11 17:31N 57°39' E 011°51'0 0.0
2017-Nov-11 17:00N 57°39' E 011°51'0 0.0
2017-Nov-11 16:31N 57°39' E 011°51'0 0.0
2017-Nov-11 16:00N 57°39' E 011°51'0 0.0
2017-Nov-11 15:31N 57°39' E 011°51'0 0.0
2017-Nov-11 15:00N 57°39' E 011°51'0 0.0
2017-Nov-11 14:30N 57°39' E 011°51'0 0.1
2017-Nov-11 14:00N 57°39' E 011°51'0 0.1
2017-Nov-11 13:30N 57°39' E 011°51'0 0.0
2017-Nov-11 13:00N 57°39' E 011°51'0 0.0
2017-Nov-11 12:31N 57°39' E 011°51'0 0.0
2017-Nov-11 12:01N 57°39' E 011°51'0 0.1
2017-Nov-11 11:30N 57°39' E 011°52'0 0.1
2017-Nov-11 11:01N 57°39' E 011°52'0 0.1
2017-Nov-11 10:30N 57°39' E 011°51'0 0.0
2017-Nov-11 10:00N 57°39' E 011°51'0 0.0
2017-Nov-11 09:30N 57°39' E 011°51'0 0.0
2017-Nov-11 09:00N 57°39' E 011°51'0 0.0
2017-Nov-11 08:31N 57°39' E 011°51'0 0.0
2017-Nov-11 08:01N 57°39' E 011°51'0 0.0
2017-Nov-11 07:30N 57°39' E 011°51'0 0.0
2017-Nov-11 07:00N 57°39' E 011°51'0 0.0
2017-Nov-11 06:30N 57°39' E 011°51'0 0.0
2017-Nov-11 06:01N 57°39' E 011°51'0 0.0
2017-Nov-11 05:30N 57°39' E 011°51'0 0.0
2017-Nov-11 05:00N 57°39' E 011°51'0 0.0
2017-Nov-11 04:30N 57°39' E 011°51'0 0.0
2017-Nov-11 04:00N 57°39' E 011°51'0 0.0
2017-Nov-11 03:30N 57°39' E 011°51'0 0.0
2017-Nov-11 03:00N 57°39' E 011°51'0 0.0
2017-Nov-11 02:30N 57°39' E 011°51'0 0.0
2017-Nov-11 02:00N 57°39' E 011°51'0 0.0
2017-Nov-11 01:30N 57°39' E 011°51'0 0.0
2017-Nov-11 01:00N 57°39' E 011°51'0 0.0
2017-Nov-11 00:30N 57°39' E 011°51'0 0.0
2017-Nov-11 00:00N 57°39' E 011°51'0 0.0
2017-Nov-10 23:30N 57°39' E 011°51'0 0.0
2017-Nov-10 23:00N 57°39' E 011°51'0 0.0
2017-Nov-10 22:30N 57°39' E 011°51'0 0.0
2017-Nov-10 21:36N 57°39' E 011°51'0 0.1
2017-Nov-10 21:31N 57°39' E 011°51'0 0.0
2017-Nov-10 21:01N 57°39' E 011°51'0 0.0
2017-Nov-10 20:31N 57°39' E 011°51'0 0.0
2017-Nov-10 20:00N 57°39' E 011°51'0 0.0
2017-Nov-10 19:31N 57°39' E 011°51'0 0.0
2017-Nov-10 19:01N 57°39' E 011°51'0 0.0
2017-Nov-10 18:30N 57°39' E 011°51'0 0.0
2017-Nov-10 18:01N 57°39' E 011°51'0 0.0
2017-Nov-10 17:31N 57°39' E 011°51'0 0.0
2017-Nov-10 17:00N 57°39' E 011°51'0 0.0
2017-Nov-10 16:30N 57°39' E 011°51'0 0.0
2017-Nov-10 16:01N 57°39' E 011°51'0 0.0
2017-Nov-10 15:31N 57°39' E 011°51'0 0.0
2017-Nov-10 15:01N 57°39' E 011°51'0 0.0
2017-Nov-10 14:30N 57°39' E 011°51'0 0.0
2017-Nov-10 14:01N 57°39' E 011°51'0 0.0
2017-Nov-10 13:31N 57°39' E 011°51'0 0.0
2017-Nov-10 13:01N 57°39' E 011°51'0 0.0
2017-Nov-10 12:30N 57°39' E 011°51'0 0.0
2017-Nov-10 12:00N 57°39' E 011°51'0 0.0
2017-Nov-10 11:26N 57°39' E 011°51'0 0.0
2017-Nov-10 11:00N 57°39' E 011°51'0 0.0
2017-Nov-10 10:30N 57°39' E 011°51'0 0.0
2017-Nov-10 09:54N 57°39' E 011°51'0 0.0
2017-Nov-10 09:30N 57°39' E 011°51'0 0.0
2017-Nov-10 09:00N 57°39' E 011°51'0 0.0
2017-Nov-10 08:30N 57°39' E 011°51'0 0.0
2017-Nov-10 07:57N 57°39' E 011°51'0 0.0
2017-Nov-10 07:30N 57°39' E 011°51'0 0.0
2017-Nov-10 07:00N 57°39' E 011°51'0 0.0
2017-Nov-10 06:30N 57°39' E 011°51'0 0.0
2017-Nov-10 06:00N 57°39' E 011°51'0 0.0
2017-Nov-10 05:30N 57°39' E 011°51'0 0.0
2017-Nov-10 05:00N 57°39' E 011°51'0 0.0
2017-Nov-10 04:30N 57°39' E 011°51'0 0.0
2017-Nov-10 04:00N 57°39' E 011°51'0 0.0
2017-Nov-10 03:30N 57°39' E 011°51'0 0.0
2017-Nov-10 03:00N 57°39' E 011°51'0 0.0
2017-Nov-10 02:30N 57°39' E 011°51'0 0.0
2017-Nov-10 02:00N 57°39' E 011°51'0 0.0
2017-Nov-10 01:30N 57°39' E 011°51'0 0.0
2017-Nov-10 01:00N 57°39' E 011°51'0 0.1
2017-Nov-10 00:31N 57°39' E 011°52'0 0.1
2017-Nov-10 00:01N 57°39' E 011°51'0 0.0
2017-Nov-09 23:31N 57°39' E 011°51'0 0.0
2017-Nov-09 23:00N 57°39' E 011°51'0 0.0
2017-Nov-09 22:31N 57°39' E 011°51'0 0.2
2017-Nov-09 22:00N 57°39' E 011°52'0 0.3
2017-Nov-09 21:30N 57°39' E 011°52'0 0.3
2017-Nov-09 21:01N 57°39' E 011°51'0 0.0
2017-Nov-09 20:30N 57°39' E 011°51'0 0.0
2017-Nov-09 20:00N 57°39' E 011°51'0 0.0
2017-Nov-09 19:30N 57°39' E 011°51'0 0.0
2017-Nov-09 19:00N 57°39' E 011°51'0 0.0
2017-Nov-09 18:30N 57°39' E 011°51'0 0.0
2017-Nov-09 18:00N 57°39' E 011°51'0 0.0
2017-Nov-09 17:31N 57°39' E 011°51'0 0.0
2017-Nov-09 17:00N 57°39' E 011°51'0 0.0
2017-Nov-09 16:31N 57°39' E 011°51'0 0.0
2017-Nov-09 16:00N 57°39' E 011°51'0 0.0
2017-Nov-09 15:30N 57°39' E 011°51'0 0.0
2017-Nov-09 15:00N 57°39' E 011°51'0 0.0
2017-Nov-09 14:30N 57°39' E 011°51'0 0.0
2017-Nov-09 14:01N 57°39' E 011°51'0 0.0
2017-Nov-09 13:30N 57°39' E 011°51'0 0.0
2017-Nov-09 13:01N 57°39' E 011°51'0 0.0
2017-Nov-09 12:31N 57°39' E 011°51'0 0.0
2017-Nov-09 12:00N 57°39' E 011°51'0 0.1
2017-Nov-09 11:30N 57°39' E 011°51'0 0.0
2017-Nov-09 11:00N 57°39' E 011°51'0 0.0
2017-Nov-09 10:31N 57°39' E 011°51'0 0.0
2017-Nov-09 10:00N 57°39' E 011°51'0 0.0
2017-Nov-09 09:31N 57°39' E 011°51'0 0.0
2017-Nov-09 09:00N 57°39' E 011°51'0 0.0
2017-Nov-09 08:30N 57°39' E 011°51'0 0.0
2017-Nov-09 08:00N 57°39' E 011°51'0 0.0
2017-Nov-09 07:30N 57°39' E 011°51'0 0.0
2017-Nov-09 07:00N 57°39' E 011°51'0 0.0
2017-Nov-09 06:30N 57°39' E 011°51'0 0.0
2017-Nov-09 06:01N 57°39' E 011°51'0 0.0
2017-Nov-09 05:31N 57°39' E 011°51'0 0.0
2017-Nov-09 05:00N 57°39' E 011°51'0 0.0
2017-Nov-09 04:21N 57°39' E 011°51'0 0.0
2017-Nov-09 04:00N 57°39' E 011°51'0 0.0
2017-Nov-09 03:31N 57°39' E 011°51'0 0.0
2017-Nov-09 03:00N 57°39' E 011°51'0 0.0
2017-Nov-09 02:31N 57°39' E 011°51'0 0.0
2017-Nov-09 02:01N 57°39' E 011°51'0 0.0
2017-Nov-09 01:31N 57°39' E 011°51'0 0.0
2017-Nov-09 01:01N 57°39' E 011°51'0 0.1
2017-Nov-09 00:31N 57°39' E 011°51'0 0.1
2017-Nov-09 00:01N 57°39' E 011°51'0 0.0
2017-Nov-08 23:30N 57°39' E 011°51'0 0.0
2017-Nov-08 23:01N 57°39' E 011°51'0 0.0
2017-Nov-08 22:31N 57°39' E 011°51'0 0.1
2017-Nov-08 22:01N 57°39' E 011°51'0 0.1
2017-Nov-08 21:30N 57°39' E 011°51'0 0.0
2017-Nov-08 21:00N 57°39' E 011°51'0 0.0
2017-Nov-08 20:31N 57°39' E 011°51'0 0.0
2017-Nov-08 20:01N 57°39' E 011°51'0 0.0
2017-Nov-08 19:30N 57°39' E 011°51'0 0.0
2017-Nov-08 19:01N 57°39' E 011°51'0 0.0
2017-Nov-08 18:30N 57°39' E 011°51'0 0.0
2017-Nov-08 18:01N 57°39' E 011°51'0 0.0
2017-Nov-08 17:31N 57°39' E 011°51'0 0.0
2017-Nov-08 17:01N 57°39' E 011°51'0 0.0
2017-Nov-08 16:31N 57°39' E 011°51'0 0.0
2017-Nov-08 16:00N 57°39' E 011°51'0 0.0
2017-Nov-08 15:31N 57°39' E 011°51'0 0.0
2017-Nov-08 15:00N 57°39' E 011°51'0 0.0
2017-Nov-08 14:30N 57°39' E 011°51'0 0.0
2017-Nov-08 14:00N 57°39' E 011°51'0 0.0
2017-Nov-08 13:31N 57°39' E 011°51'0 0.0
2017-Nov-08 13:00N 57°39' E 011°51'0 0.0
2017-Nov-08 12:31N 57°39' E 011°51'0 0.0
2017-Nov-08 12:00N 57°39' E 011°51'0 0.1
2017-Nov-08 11:23N 57°39' E 011°51'0 0.1
2017-Nov-08 11:00N 57°39' E 011°51'0 0.0
2017-Nov-08 10:30N 57°39' E 011°51'0 0.0
2017-Nov-08 10:00N 57°39' E 011°51'0 0.0
2017-Nov-08 09:30N 57°39' E 011°51'0 0.0
2017-Nov-08 09:01N 57°39' E 011°51'0 0.0
2017-Nov-08 08:30N 57°39' E 011°51'0 0.0
2017-Nov-08 08:00N 57°39' E 011°51'0 0.0
2017-Nov-08 07:30N 57°39' E 011°51'0 0.0
2017-Nov-08 07:00N 57°39' E 011°51'0 0.0
2017-Nov-08 06:24N 57°39' E 011°51'0 0.0
2017-Nov-08 06:00N 57°39' E 011°51'0 0.0
2017-Nov-08 05:31N 57°39' E 011°51'0 0.0
2017-Nov-08 05:00N 57°39' E 011°51'0 0.0
2017-Nov-08 04:29N 57°39' E 011°51'0 0.0
2017-Nov-08 04:00N 57°39' E 011°51'0 0.0
2017-Nov-08 03:30N 57°39' E 011°51'0 0.0
2017-Nov-08 03:00N 57°39' E 011°51'0 0.0
2017-Nov-08 02:31N 57°39' E 011°51'0 0.0
2017-Nov-08 02:01N 57°39' E 011°51'0 0.0
2017-Nov-08 01:30N 57°39' E 011°51'0 0.0
2017-Nov-08 00:48N 57°39' E 011°51'0 0.0
2017-Nov-08 00:30N 57°39' E 011°51'0 0.0
2017-Nov-08 00:00N 57°39' E 011°51'0 0.0
2017-Nov-07 23:30N 57°39' E 011°51'0 0.0
2017-Nov-07 23:00N 57°39' E 011°51'0 0.0
2017-Nov-07 22:30N 57°39' E 011°51'0 0.1
2017-Nov-07 22:00N 57°39' E 011°52'0 0.1
2017-Nov-07 21:30N 57°39' E 011°51'0 0.0
2017-Nov-07 21:01N 57°39' E 011°51'0 0.0
2017-Nov-07 20:30N 57°39' E 011°51'0 0.0
2017-Nov-07 20:01N 57°39' E 011°51'0 0.0
2017-Nov-07 19:30N 57°39' E 011°51'0 0.0
2017-Nov-07 19:00N 57°39' E 011°51'0 0.0
2017-Nov-07 18:30N 57°39' E 011°51'0 0.0
2017-Nov-07 18:00N 57°39' E 011°51'0 0.0
2017-Nov-07 17:30N 57°39' E 011°51'0 0.0
2017-Nov-07 17:01N 57°39' E 011°51'0 0.0
2017-Nov-07 16:30N 57°39' E 011°51'0 0.0
2017-Nov-07 16:00N 57°39' E 011°51'0 0.0
2017-Nov-07 15:30N 57°39' E 011°51'0 0.0
2017-Nov-07 15:01N 57°39' E 011°51'0 0.0
2017-Nov-07 14:30N 57°39' E 011°51'0 0.0
2017-Nov-07 14:00N 57°39' E 011°51'0 0.0
2017-Nov-07 13:30N 57°39' E 011°51'0 0.0
2017-Nov-07 13:00N 57°39' E 011°51'0 0.0
2017-Nov-07 12:30N 57°39' E 011°51'0 0.0
2017-Nov-07 11:38N 57°39' E 011°51'0 0.2
2017-Nov-07 11:30N 57°39' E 011°51'0 0.1
2017-Nov-07 11:00N 57°39' E 011°51'0 0.0
2017-Nov-07 10:30N 57°39' E 011°51'0 0.0
2017-Nov-07 10:00N 57°39' E 011°51'0 0.0
2017-Nov-07 09:30N 57°39' E 011°51'0 0.0
2017-Nov-07 09:00N 57°39' E 011°51'0 0.0
2017-Nov-07 08:30N 57°39' E 011°51'0 0.0
2017-Nov-07 08:00N 57°39' E 011°51'0 0.0
2017-Nov-07 07:30N 57°39' E 011°51'0 0.0
2017-Nov-07 07:00N 57°39' E 011°51'0 0.1
2017-Nov-07 06:29N 57°39' E 011°52'0 0.2
2017-Nov-07 06:00N 57°39' E 011°51'0 0.0
2017-Nov-07 05:30N 57°39' E 011°51'0 0.0
2017-Nov-07 05:00N 57°39' E 011°51'0 0.0
2017-Nov-07 04:31N 57°39' E 011°51'0 0.0
2017-Nov-07 04:01N 57°39' E 011°51'0 0.0
2017-Nov-07 03:30N 57°39' E 011°51'0 0.0
2017-Nov-07 03:00N 57°39' E 011°51'0 0.0
2017-Nov-07 02:30N 57°39' E 011°51'0 0.0
2017-Nov-07 02:00N 57°39' E 011°51'0 0.0
2017-Nov-07 01:30N 57°39' E 011°51'0 0.2
2017-Nov-07 01:00N 57°39' E 011°51'0 0.3
2017-Nov-07 00:31N 57°39' E 011°52'0 0.1
2017-Nov-07 00:01N 57°39' E 011°51'0 0.0
2017-Nov-06 23:30N 57°39' E 011°51'0 0.0
2017-Nov-06 23:01N 57°39' E 011°51'0 0.0
2017-Nov-06 22:30N 57°39' E 011°51'0 0.0
2017-Nov-06 21:49N 57°39' E 011°51'0 0.0
2017-Nov-06 21:31N 57°39' E 011°51'0 0.0
2017-Nov-06 21:00N 57°39' E 011°51'0 0.0
2017-Nov-06 20:30N 57°39' E 011°51'0 0.0
2017-Nov-06 02:30N 57°39' E 011°51'0 0.0
2017-Nov-06 02:01N 57°39' E 011°51'0 0.0
2017-Nov-06 01:31N 57°39' E 011°51'0 0.0
2017-Nov-06 00:55N 57°39' E 011°51'0 0.0
2017-Nov-06 00:30N 57°39' E 011°51'0 0.0
2017-Nov-06 00:00N 57°39' E 011°51'0 0.0
2017-Nov-05 23:30N 57°39' E 011°51'0 0.0
2017-Nov-05 23:00N 57°39' E 011°51'0 0.0
2017-Nov-05 22:30N 57°39' E 011°51'0 0.3
2017-Nov-05 22:00N 57°39' E 011°51'0 0.3
2017-Nov-05 21:30N 57°39' E 011°51'0 0.0
2017-Nov-05 21:00N 57°39' E 011°51'0 0.0
2017-Nov-05 20:30N 57°39' E 011°51'0 0.0
2017-Nov-05 20:00N 57°39' E 011°51'0 0.0
2017-Nov-05 19:30N 57°39' E 011°51'0 0.0
2017-Nov-05 19:00N 57°39' E 011°51'0 0.0
2017-Nov-05 18:30N 57°39' E 011°51'0 0.0
2017-Nov-05 18:00N 57°39' E 011°51'0 0.0
2017-Nov-05 17:30N 57°39' E 011°51'0 0.0
2017-Nov-05 17:00N 57°39' E 011°51'0 0.0
2017-Nov-05 16:30N 57°39' E 011°51'0 0.0
2017-Nov-05 16:00N 57°39' E 011°51'0 0.0
2017-Nov-05 15:30N 57°39' E 011°51'0 0.0
2017-Nov-05 15:00N 57°39' E 011°51'0 0.0
2017-Nov-05 14:30N 57°39' E 011°51'0 0.0
2017-Nov-05 14:00N 57°39' E 011°51'0 0.0
2017-Nov-05 13:30N 57°39' E 011°51'0 0.0
2017-Nov-05 13:00N 57°39' E 011°51'0 0.0
2017-Nov-05 12:30N 57°39' E 011°51'0 0.1
2017-Nov-05 12:00N 57°39' E 011°51'0 0.1
2017-Nov-05 11:30N 57°39' E 011°51'  

Dump ship's entire track history